createdAt,value
2019-01-31T00:01:37.835Z,0.59
2019-01-31T00:06:21.403Z,0.53
2019-01-31T00:11:44.864Z,0.53
2019-01-31T00:16:33.560Z,0.50
2019-01-31T00:21:21.236Z,0.47
2019-01-31T00:26:28.346Z,0.53
2019-01-31T00:31:19.534Z,0.49
2019-01-31T00:36:33.495Z,0.45
2019-01-31T00:41:23.812Z,0.46
2019-01-31T00:46:18.385Z,0.36
2019-01-31T00:50:51.201Z,0.36
2019-01-31T00:55:34.076Z,0.29
2019-01-31T01:00:46.230Z,0.32
2019-01-31T01:05:34.425Z,0.16
2019-01-31T01:10:03.630Z,0.19
2019-01-31T01:15:15.840Z,0.14
2019-01-31T01:19:49.882Z,0.05
2019-01-31T01:24:11.818Z,0.03
2019-01-31T01:29:08.083Z,-0.08
2019-01-31T01:33:59.016Z,-0.03
2019-01-31T01:39:06.377Z,-0.11
2019-01-31T01:43:47.527Z,-0.15
2019-01-31T01:48:37.447Z,-0.28
2019-01-31T01:53:30.795Z,-0.23
2019-01-31T01:58:53.684Z,-0.34
2019-01-31T02:03:48.949Z,-0.39
2019-01-31T02:09:17.033Z,-0.38
2019-01-31T02:14:20.926Z,-0.48
2019-01-31T02:18:46.834Z,-0.74
2019-01-31T02:23:27.539Z,-0.73
2019-01-31T02:28:40.390Z,-0.86
2019-01-31T02:33:52.055Z,-0.69
2019-01-31T02:39:09.200Z,-0.65
2019-01-31T02:44:09.882Z,-0.54
2019-01-31T02:49:16.823Z,-0.83
2019-01-31T02:54:09.712Z,-0.77
2019-01-31T02:59:00.405Z,-0.89
2019-01-31T03:03:54.330Z,-0.70
2019-01-31T03:08:38.674Z,-0.89
2019-01-31T03:13:50.244Z,-0.77
2019-01-31T03:18:37.955Z,-0.67
2019-01-31T03:23:25.509Z,-0.67
2019-01-31T03:27:58.195Z,-0.69
2019-01-31T03:33:05.768Z,-0.70
2019-01-31T03:38:09.758Z,-0.71
2019-01-31T03:42:59.670Z,-0.83
2019-01-31T03:47:58.767Z,-0.91
2019-01-31T03:53:04.462Z,-0.88
2019-01-31T03:58:05.464Z,-0.87
2019-01-31T04:02:58.465Z,-1.01
2019-01-31T04:07:05.382Z,-1.13
2019-01-31T04:11:12.249Z,-1.04
2019-01-31T04:15:19.034Z,-1.02
2019-01-31T04:19:25.895Z,-0.94
2019-01-31T04:23:32.683Z,-0.92
2019-01-31T04:27:39.494Z,-0.95
2019-01-31T04:31:47.715Z,-1.00
2019-01-31T04:35:54.638Z,-0.92
2019-01-31T04:40:01.448Z,-0.90
2019-01-31T04:44:08.472Z,-0.88
2019-01-31T04:48:15.262Z,-0.90
2019-01-31T04:52:22.268Z,-0.86
2019-01-31T04:56:29.068Z,-0.80
2019-01-31T05:00:35.863Z,-1.02
2019-01-31T05:04:42.702Z,-0.88
2019-01-31T05:08:49.531Z,-0.90
2019-01-31T05:12:56.443Z,-0.92
2019-01-31T05:17:03.228Z,-0.89
2019-01-31T05:21:10.042Z,-0.80
2019-01-31T05:25:17.135Z,-0.70
2019-01-31T05:29:24.058Z,-0.69
2019-01-31T05:33:31.201Z,-0.76
2019-01-31T05:37:38.083Z,-0.86
2019-01-31T05:41:46.512Z,-0.75
2019-01-31T05:45:53.550Z,-0.73
2019-01-31T05:50:00.455Z,-0.63
2019-01-31T05:54:07.476Z,-0.78
2019-01-31T05:58:14.585Z,-0.75
2019-01-31T06:02:21.485Z,-0.69
2019-01-31T06:06:28.861Z,-0.72
2019-01-31T06:10:35.774Z,-0.75
2019-01-31T06:14:42.579Z,-0.68
2019-01-31T06:18:49.408Z,-0.73
2019-01-31T06:22:56.754Z,-0.77
2019-01-31T06:27:03.959Z,-0.86
2019-01-31T06:31:10.966Z,-0.81
2019-01-31T06:35:18.039Z,-0.84
2019-01-31T06:39:25.013Z,-0.87
2019-01-31T06:43:31.786Z,-0.75
2019-01-31T06:47:38.698Z,-0.70
2019-01-31T06:51:46.768Z,-0.71
2019-01-31T06:55:53.691Z,-0.79
2019-01-31T07:00:00.545Z,-0.79
2019-01-31T07:04:11.042Z,-0.76
2019-01-31T07:08:17.248Z,-0.72
2019-01-31T07:12:24.162Z,-0.75
2019-01-31T07:16:31.029Z,0.90
2019-01-31T07:20:37.945Z,0.21
2019-01-31T07:24:45.103Z,0.31
2019-01-31T07:28:52.003Z,-0.12
2019-01-31T07:32:58.962Z,-0.19
2019-01-31T07:37:05.876Z,0.08
2019-01-31T07:41:12.787Z,-0.07
2019-01-31T07:45:29.481Z,0.08
2019-01-31T07:49:36.750Z,0.14
2019-01-31T07:53:43.710Z,0.16
2019-01-31T07:57:50.613Z,0.17
2019-01-31T08:01:57.472Z,0.27
2019-01-31T08:06:04.289Z,0.22
2019-01-31T08:10:18.447Z,0.28
2019-01-31T08:14:25.312Z,0.11
2019-01-31T08:18:32.105Z,0.25
2019-01-31T08:22:39.022Z,0.18
2019-01-31T08:26:46.074Z,0.54
2019-01-31T08:30:52.956Z,0.32
2019-01-31T08:34:59.749Z,0.28
2019-01-31T08:39:09.379Z,0.25
2019-01-31T08:43:16.238Z,0.17
2019-01-31T08:47:23.128Z,0.22
2019-01-31T08:51:30.245Z,0.08
2019-01-31T08:55:37.186Z,0.29
2019-01-31T08:59:44.119Z,0.26
2019-01-31T09:03:51.042Z,0.06
2019-01-31T09:08:07.710Z,0.31
2019-01-31T09:12:20.326Z,0.26
2019-01-31T09:16:46.033Z,0.25
2019-01-31T09:21:06.800Z,0.25
2019-01-31T09:26:02.884Z,0.16
2019-01-31T09:31:27.803Z,0.31
2019-01-31T09:36:19.022Z,0.32
2019-01-31T09:41:12.666Z,0.25
2019-01-31T09:45:59.660Z,0.19
2019-01-31T09:51:12.113Z,0.17
2019-01-31T09:56:30.369Z,0.24
2019-01-31T10:01:12.782Z,0.21
2019-01-31T10:05:47.267Z,0.31
2019-01-31T10:10:55.808Z,0.45
2019-01-31T10:16:06.190Z,0.49
2019-01-31T10:20:57.393Z,0.48
2019-01-31T10:26:27.935Z,0.53
2019-01-31T10:31:08.832Z,0.38
2019-01-31T10:35:55.707Z,0.49
2019-01-31T10:41:15.180Z,0.52
2019-01-31T10:45:57.850Z,0.42
2019-01-31T10:51:10.755Z,0.48
2019-01-31T10:56:05.071Z,0.61
2019-01-31T11:01:25.338Z,0.87
2019-01-31T11:06:39.027Z,0.75
2019-01-31T11:11:17.225Z,0.82
2019-01-31T11:16:27.206Z,0.82
2019-01-31T11:21:10.772Z,0.91
2019-01-31T11:26:17.767Z,1.03
2019-01-31T11:31:07.662Z,1.08
2019-01-31T11:35:47.033Z,0.98
2019-01-31T11:40:32.148Z,1.09
2019-01-31T11:45:40.017Z,1.09
2019-01-31T11:50:39.573Z,1.15
2019-01-31T11:55:41.793Z,1.23
2019-01-31T11:59:50.179Z,1.44
2019-01-31T12:04:04.766Z,1.77
2019-01-31T12:08:14.411Z,1.90
2019-01-31T12:12:21.379Z,1.83
2019-01-31T12:16:28.350Z,1.58
2019-01-31T12:20:35.229Z,1.71
2019-01-31T12:24:42.257Z,1.80
2019-01-31T12:28:51.001Z,2.12
2019-01-31T12:32:57.740Z,1.81
2019-01-31T12:37:04.566Z,1.83
2019-01-31T12:41:11.557Z,1.81
2019-01-31T12:45:21.883Z,2.02
2019-01-31T12:49:28.789Z,1.83
2019-01-31T12:53:35.715Z,1.90
2019-01-31T12:57:42.702Z,1.92
2019-01-31T13:01:49.602Z,2.25
2019-01-31T13:05:57.264Z,2.32
2019-01-31T13:10:04.266Z,2.20
2019-01-31T13:14:11.179Z,2.24
2019-01-31T13:18:18.228Z,2.19
2019-01-31T13:22:26.092Z,2.17
2019-01-31T13:26:33.106Z,2.15
2019-01-31T13:30:39.947Z,2.18
2019-01-31T13:34:46.830Z,2.10
2019-01-31T13:38:53.682Z,2.26
2019-01-31T13:43:00.744Z,2.18
2019-01-31T13:47:07.716Z,2.21
2019-01-31T13:51:14.633Z,2.14
2019-01-31T13:55:25.339Z,2.22
2019-01-31T13:59:32.311Z,2.31
2019-01-31T14:03:39.284Z,2.41
2019-01-31T14:07:46.228Z,2.31
2019-01-31T14:11:53.081Z,2.07
2019-01-31T14:16:01.203Z,2.05
2019-01-31T14:20:12.453Z,2.15
2019-01-31T14:24:19.319Z,1.98
2019-01-31T14:28:26.129Z,2.07
2019-01-31T14:32:33.396Z,2.19
2019-01-31T14:36:40.232Z,2.23
2019-01-31T14:40:47.150Z,2.16
2019-01-31T14:44:54.277Z,2.13
2019-01-31T14:49:02.358Z,2.15
2019-01-31T14:53:09.439Z,2.23
2019-01-31T14:57:16.247Z,2.18
2019-01-31T15:01:23.196Z,2.22
2019-01-31T15:05:30.352Z,2.11
2019-01-31T15:09:37.220Z,2.17
2019-01-31T15:13:44.178Z,2.16
2019-01-31T15:17:53.034Z,2.24
2019-01-31T15:21:59.519Z,2.14
2019-01-31T15:26:06.488Z,2.11
2019-01-31T15:30:17.290Z,2.10
2019-01-31T15:34:24.180Z,2.11
2019-01-31T15:38:31.586Z,2.24
2019-01-31T15:42:38.467Z,2.09
2019-01-31T15:47:09.989Z,2.12
2019-01-31T15:51:17.849Z,2.01
2019-01-31T15:55:25.564Z,2.02
2019-01-31T15:59:32.455Z,1.94
2019-01-31T16:03:39.425Z,2.03
2019-01-31T16:07:46.481Z,2.10
2019-01-31T16:11:53.408Z,1.91
2019-01-31T16:16:00.416Z,1.77
2019-01-31T16:20:10.162Z,1.83
2019-01-31T16:24:20.083Z,1.91
2019-01-31T16:28:32.510Z,1.68
2019-01-31T16:32:39.491Z,1.64
2019-01-31T16:36:46.643Z,1.69
2019-01-31T16:41:00.534Z,1.67
2019-01-31T16:45:11.856Z,2.11
2019-01-31T16:49:18.837Z,2.16
2019-01-31T16:53:25.949Z,1.83
2019-01-31T16:57:33.297Z,1.68
2019-01-31T17:01:45.964Z,1.62
2019-01-31T17:05:57.859Z,1.62
2019-01-31T17:10:14.740Z,1.36
2019-01-31T17:14:22.937Z,1.26
2019-01-31T17:18:30.087Z,1.50
2019-01-31T17:22:40.314Z,1.51
2019-01-31T17:26:47.286Z,1.25
2019-01-31T17:30:55.757Z,1.16
2019-01-31T17:35:07.656Z,1.08
2019-01-31T17:39:14.597Z,1.07
2019-01-31T17:43:22.771Z,1.23
2019-01-31T17:47:31.972Z,1.17
2019-01-31T17:51:38.934Z,1.21
2019-01-31T17:55:46.106Z,1.26
2019-01-31T17:59:57.536Z,1.23
2019-01-31T18:04:26.907Z,1.31
2019-01-31T18:08:40.349Z,1.33
2019-01-31T18:13:01.944Z,1.29
2019-01-31T18:17:16.081Z,1.29
2019-01-31T18:26:06.052Z,1.11
2019-01-31T18:30:54.715Z,1.16
2019-01-31T18:35:17.343Z,1.03
2019-01-31T18:39:52.808Z,1.03
2019-01-31T18:44:17.029Z,0.90
2019-01-31T18:48:23.924Z,0.74
2019-01-31T18:52:30.896Z,0.68
2019-01-31T18:56:37.794Z,0.57
2019-01-31T19:00:48.211Z,0.50
2019-01-31T19:04:55.433Z,0.59
2019-01-31T19:09:03.106Z,0.46
2019-01-31T19:13:11.516Z,0.53
2019-01-31T19:17:18.779Z,0.51
2019-01-31T19:21:27.262Z,0.40
2019-01-31T19:25:34.729Z,0.34
2019-01-31T19:29:42.946Z,0.30
2019-01-31T19:33:51.847Z,0.25
2019-01-31T19:38:02.063Z,0.17
2019-01-31T19:42:08.046Z,0.13
2019-01-31T19:46:16.892Z,0.10
2019-01-31T19:50:24.277Z,0.08
2019-01-31T19:54:32.823Z,0.28
2019-01-31T19:58:39.809Z,0.06
2019-01-31T20:02:46.800Z,0.00
2019-01-31T20:06:55.059Z,-0.11
2019-01-31T20:11:02.420Z,-0.16
2019-01-31T20:15:10.226Z,-0.18
2019-01-31T20:19:18.015Z,-0.20
2019-01-31T20:23:25.090Z,-0.23
2019-01-31T20:27:35.522Z,-0.31
2019-01-31T20:31:41.765Z,-0.30
2019-01-31T20:35:48.680Z,-0.31
2019-01-31T20:39:55.630Z,-0.39
2019-01-31T20:44:02.644Z,-0.39
2019-01-31T20:48:10.608Z,-0.42
2019-01-31T20:52:17.542Z,-0.33
2019-01-31T20:56:24.459Z,-0.37
2019-01-31T21:00:38.716Z,-0.31
2019-01-31T21:04:47.137Z,-0.28
2019-01-31T21:08:53.979Z,-0.26
2019-01-31T21:13:01.024Z,-0.23
2019-01-31T21:17:08.552Z,-0.26
2019-01-31T21:21:15.399Z,-0.15
2019-01-31T21:25:22.415Z,-0.21
2019-01-31T21:29:29.612Z,-0.16
2019-01-31T21:33:36.855Z,-0.14
2019-01-31T21:37:47.634Z,-0.17
2019-01-31T21:41:54.845Z,-0.14
2019-01-31T21:46:01.992Z,-0.11
2019-01-31T21:50:12.429Z,-0.14
2019-01-31T21:54:19.578Z,-0.11
2019-01-31T21:58:28.169Z,-0.12
2019-01-31T22:02:35.207Z,-0.04
2019-01-31T22:06:42.213Z,-0.14
2019-01-31T22:10:49.125Z,-0.12
2019-01-31T22:14:56.203Z,-0.02
2019-01-31T22:19:03.438Z,-0.02
2019-01-31T22:23:10.490Z,-0.06
2019-01-31T22:27:17.412Z,-0.01
2019-01-31T22:31:24.409Z,-0.01
2019-01-31T22:35:31.274Z,0.05
2019-01-31T22:39:38.172Z,0.19
2019-01-31T22:43:45.182Z,0.03
2019-01-31T22:47:52.289Z,0.15
2019-01-31T22:52:02.809Z,0.07
2019-01-31T22:56:09.768Z,0.15
2019-01-31T23:00:57.192Z,0.14
2019-01-31T23:05:06.923Z,0.20
2019-01-31T23:09:14.709Z,0.29
2019-01-31T23:13:27.277Z,0.29
2019-01-31T23:17:59.505Z,0.48
2019-01-31T23:22:06.481Z,0.59
2019-01-31T23:26:16.002Z,0.64
2019-01-31T23:30:22.910Z,0.53
2019-01-31T23:34:29.839Z,0.56
2019-01-31T23:38:36.949Z,0.53
2019-01-31T23:42:43.876Z,0.67
2019-01-31T23:46:50.751Z,0.73
2019-01-31T23:50:57.593Z,0.63
2019-01-31T23:55:06.908Z,0.67
2019-01-31T23:59:13.899Z,0.71
